Earl Gonsoulin — WDC3306 — position and weather

sailwx.info

Track history (hours):
 
Tides and Currents Weather Stations Pressure Air Temp Water Temp Dewpoint Dewpoint Depression Visibility Wind Speed Wind Dir Waves Ship Positions

Earl Gonsoulin

Owner: LeBeouf Bros. Towing, L.L.C., Houma, LA. More information available from US FCC via Universal Licensing System and Coast Guard Vessel Documentation Center.

Last reported at 2018-Feb-19 21:30 UTC. Time now 2018-Feb-19 21:50 UTC.
Position N 29°48' W 094°01'.

Length 21 m; draft 3 m.

Type: Tug. MMSI: 367005550.

Date/timePositionNaut miles runAvg speedWind from/ knotsBaromVisibWave heightAir tempDewpointWater temp
2018-Feb-19 21:30N 29°48' W 094°01'0 0.0
2018-Feb-19 21:00N 29°48' W 094°01'1 2.0
2018-Feb-19 20:30N 29°47' W 094°01'3 5.6
2018-Feb-19 20:00N 29°45' W 094°04'3 5.5
2018-Feb-19 19:30N 29°44' W 094°06'3 5.3
2018-Feb-19 18:59N 29°42' W 094°09'3 5.5
2018-Feb-19 18:28N 29°41' W 094°12'9 5.3
2018-Feb-19 16:50N 29°37' W 094°21'1 4.0
2018-Feb-19 16:30N 29°36' W 094°22'3 4.2
2018-Feb-19 15:54N 29°36' W 094°25'4 3.3
2018-Feb-19 14:47N 29°33' W 094°28'1 4.8
2018-Feb-19 14:30N 29°32' W 094°29'3 3.8
2018-Feb-19 13:49N 29°31' W 094°31'3 0.9
2018-Feb-19 11:04N 29°30' W 094°34'0 0.0
2018-Feb-19 11:00N 29°30' W 094°34'0 0.0
2018-Feb-19 10:30N 29°30' W 094°34'2 2.5
2018-Feb-19 09:49N 29°29' W 094°36'1 3.0
2018-Feb-19 09:30N 29°29' W 094°37'0 0.6
2018-Feb-19 08:59N 29°29' W 094°37'0 0.0
2018-Feb-19 08:30N 29°29' W 094°37'0 0.0
2018-Feb-19 08:00N 29°29' W 094°37'0 0.0
2018-Feb-19 07:30N 29°29' W 094°37'0 0.0
2018-Feb-19 07:00N 29°29' W 094°37'0 0.0
2018-Feb-19 06:30N 29°29' W 094°37'0 0.0
2018-Feb-19 06:00N 29°29' W 094°37'0 0.0
2018-Feb-19 05:30N 29°29' W 094°37'0 0.0
2018-Feb-19 05:00N 29°29' W 094°37'0 0.0
2018-Feb-19 04:27N 29°29' W 094°37'0 0.0
2018-Feb-19 04:00N 29°29' W 094°37'0 0.0
2018-Feb-19 02:28N 29°29' W 094°37'0 0.1
2018-Feb-19 01:22N 29°29' W 094°37'0 0.0
2018-Feb-19 00:55N 29°29' W 094°37'0 0.0
2018-Feb-18 19:36N 29°29' W 094°37'0 0.0
2018-Feb-18 19:21N 29°29' W 094°37'0 0.0
2018-Feb-18 18:59N 29°29' W 094°37'0 0.0
2018-Feb-18 18:30N 29°29' W 094°37'0 0.0
2018-Feb-18 17:57N 29°29' W 094°37'0 0.0
2018-Feb-18 17:26N 29°29' W 094°37'0 0.0
2018-Feb-18 16:57N 29°29' W 094°37'0 0.0
2018-Feb-18 16:29N 29°29' W 094°37'0 0.0
2018-Feb-18 15:59N 29°29' W 094°37'0 0.0
2018-Feb-18 15:21N 29°29' W 094°37'0 0.0
2018-Feb-18 14:54N 29°29' W 094°37'0 0.0
2018-Feb-18 14:30N 29°29' W 094°37'0 0.0
2018-Feb-18 09:11N 29°29' W 094°37'0 0.0
2018-Feb-18 07:52N 29°29' W 094°37'0 0.0
2018-Feb-18 02:11N 29°29' W 094°37'0 0.0
2018-Feb-18 01:31N 29°29' W 094°37'0 0.0
2018-Feb-18 01:30N 29°29' W 094°37'13 1.8
2018-Feb-17 18:28N 29°29' W 094°52'4 8.3
2018-Feb-17 18:00N 29°32' W 094°54'4 8.0
2018-Feb-17 17:30N 29°36' W 094°57'4 7.2
2018-Feb-17 17:00N 29°39' W 094°58'3 6.9
2018-Feb-17 16:30N 29°42' W 095°00'1 2.3
2018-Feb-17 16:00N 29°42' W 095°02'1 2.1
2018-Feb-17 15:28N 29°42' W 095°03'0 0.0
2018-Feb-16 19:55N 29°42' W 095°03'0 0.5
2018-Feb-16 19:27N 29°42' W 095°03'1 2.6
2018-Feb-16 18:59N 29°42' W 095°01'1 2.1
2018-Feb-16 18:30N 29°43' W 095°01'3 6.1
2018-Feb-16 18:00N 29°45' W 095°04'1 2.7
2018-Feb-16 17:30N 29°45' W 095°06'0 0.3
2018-Feb-16 16:11N 29°45' W 095°06'0 0.0
2018-Feb-16 15:47N 29°45' W 095°06'0 0.0
2018-Feb-16 08:43N 29°45' W 095°06'0 0.0
2018-Feb-16 08:15N 29°45' W 095°06'0 0.0
2018-Feb-16 07:58N 29°45' W 095°06'0 0.0
2018-Feb-16 07:27N 29°45' W 095°06'0 0.0
2018-Feb-16 06:43N 29°45' W 095°06'0 0.0
2018-Feb-16 06:25N 29°45' W 095°06'0 0.0
2018-Feb-16 05:59N 29°45' W 095°06'0 0.0
2018-Feb-16 05:28N 29°45' W 095°06'0 0.0
2018-Feb-16 05:00N 29°45' W 095°06'0 0.0
2018-Feb-16 04:30N 29°45' W 095°06'0 0.0
2018-Feb-16 04:00N 29°45' W 095°06'0 0.0
2018-Feb-16 03:28N 29°45' W 095°06'0 0.0
2018-Feb-16 03:00N 29°45' W 095°06'0 0.0
2018-Feb-16 02:29N 29°45' W 095°06'0 0.0
2018-Feb-16 02:00N 29°45' W 095°06'0 0.0
2018-Feb-16 01:25N 29°45' W 095°06'0 0.0
2018-Feb-16 00:52N 29°45' W 095°06'0 0.1
2018-Feb-15 19:33N 29°45' W 095°06'3 1.4
2018-Feb-15 17:14N 29°44' W 095°03'2 5.7
2018-Feb-15 16:55N 29°43' W 095°01'1 3.2
2018-Feb-15 16:30N 29°42' W 095°03'0 0.0
2018-Feb-15 11:18N 29°42' W 095°03'0 0.0
2018-Feb-15 07:59N 29°42' W 095°03'0 0.0
2018-Feb-15 06:22N 29°42' W 095°03'0 0.0
2018-Feb-15 04:37N 29°42' W 095°03'0 0.0
2018-Feb-15 04:25N 29°42' W 095°03'0 0.0
2018-Feb-15 03:36N 29°42' W 095°03'0 0.0
2018-Feb-15 02:31N 29°42' W 095°03'0 0.0
2018-Feb-15 02:28N 29°42' W 095°03'0 0.0
2018-Feb-15 01:56N 29°42' W 095°03'0 0.0
2018-Feb-15 01:22N 29°42' W 095°03'0 0.0
2018-Feb-14 23:11N 29°42' W 095°03'0 0.0
2018-Feb-14 22:59N 29°42' W 095°03'0 0.0
2018-Feb-14 20:44N 29°42' W 095°03'0 0.0
2018-Feb-14 20:14N 29°42' W 095°03'0 0.0
2018-Feb-14 19:56N 29°42' W 095°03'0 0.0
2018-Feb-14 16:24N 29°43' W 095°03'1 3.1
2018-Feb-14 15:58N 29°42' W 095°01'5 1.1
2018-Feb-14 11:14N 29°45' W 095°06'0 0.0
2018-Feb-14 10:53N 29°45' W 095°06'0 0.0
2018-Feb-14 10:23N 29°45' W 095°06'0 0.0
2018-Feb-14 09:59N 29°45' W 095°06'0 0.0
2018-Feb-14 09:29N 29°45' W 095°06'0 0.0
2018-Feb-14 08:43N 29°45' W 095°06'0 0.0
2018-Feb-14 08:30N 29°45' W 095°06'0 0.0
2018-Feb-14 07:57N 29°45' W 095°06'0 0.0
2018-Feb-14 07:30N 29°45' W 095°06'0 0.0
2018-Feb-14 07:00N 29°45' W 095°06'0 0.0
2018-Feb-14 05:42N 29°45' W 095°06'0 0.0
2018-Feb-14 05:29N 29°45' W 095°06'0 0.0
2018-Feb-14 05:00N 29°45' W 095°06'0 0.0
2018-Feb-14 04:25N 29°45' W 095°06'0 0.0
2018-Feb-14 03:59N 29°45' W 095°06'0 0.0
2018-Feb-14 03:25N 29°45' W 095°06'0 0.0
2018-Feb-14 02:50N 29°45' W 095°06'0 0.0
2018-Feb-14 02:29N 29°45' W 095°06'0 0.0
2018-Feb-14 01:54N 29°45' W 095°06'0 0.0
2018-Feb-14 01:12N 29°45' W 095°06'0 0.0
2018-Feb-14 00:57N 29°45' W 095°06'0 0.0
2018-Feb-14 00:25N 29°45' W 095°06'0 0.0
2018-Feb-13 22:11N 29°45' W 095°06'0 0.0
2018-Feb-13 22:00N 29°45' W 095°06'0 0.0
2018-Feb-13 21:29N 29°45' W 095°06'0 0.0
2018-Feb-13 20:52N 29°45' W 095°06'0 0.0
2018-Feb-13 20:30N 29°45' W 095°06'0 0.0
2018-Feb-13 19:07N 29°45' W 095°06'0 0.0
2018-Feb-13 18:55N 29°45' W 095°06'0 0.0
2018-Feb-13 18:23N 29°45' W 095°06'0 0.0
2018-Feb-13 16:55N 29°45' W 095°06'0 0.0
2018-Feb-13 16:30N 29°45' W 095°06'0 0.0
2018-Feb-13 15:47N 29°45' W 095°06'0 0.0
2018-Feb-13 14:58N 29°45' W 095°06'0 0.0
2018-Feb-13 14:26N 29°45' W 095°06'0 0.0
2018-Feb-13 13:14N 29°45' W 095°06'0 0.0
2018-Feb-13 11:49N 29°45' W 095°06'0 0.0
2018-Feb-13 11:27N 29°45' W 095°06'4 0.4
2018-Feb-13 01:45N 29°42' W 095°03'0 1.2
2018-Feb-13 01:29N 29°42' W 095°02'1 2.5
2018-Feb-13 01:00N 29°42' W 095°01'1 2.6
2018-Feb-13 00:30N 29°42' W 094°60'4 7.8
2018-Feb-13 00:00N 29°38' W 094°58'4 7.9
2018-Feb-12 23:30N 29°35' W 094°56'16 2.5
2018-Feb-12 16:55N 29°28' W 094°38'1 3.2
2018-Feb-12 16:29N 29°29' W 094°37'2 0.1
2018-Feb-11 22:23N 29°30' W 094°34'11 3.3
2018-Feb-11 19:05N 29°36' W 094°24'0 5.3
2018-Feb-11 19:00N 29°36' W 094°24'2 4.1
2018-Feb-11 18:25N 29°37' W 094°21'2 4.3
2018-Feb-11 18:00N 29°38' W 094°19'2 3.9
2018-Feb-11 17:30N 29°38' W 094°17'1 3.0
2018-Feb-11 17:00N 29°39' W 094°16'2 4.3
2018-Feb-11 16:30N 29°40' W 094°14'2 4.4
2018-Feb-11 16:00N 29°41' W 094°12'2 4.7
2018-Feb-11 15:30N 29°42' W 094°09'2 4.1
2018-Feb-11 15:00N 29°43' W 094°07'2 4.6
2018-Feb-11 14:30N 29°44' W 094°05'0 0.1
2018-Feb-11 14:00N 29°44' W 094°05'0 0.0
2018-Feb-11 13:30N 29°44' W 094°05'0 0.0
2018-Feb-11 13:00N 29°44' W 094°05'0 0.0
2018-Feb-11 12:30N 29°44' W 094°05'0 0.0
2018-Feb-11 12:00N 29°44' W 094°05'0 0.0
2018-Feb-11 11:30N 29°44' W 094°05'0 0.0
2018-Feb-11 11:00N 29°44' W 094°05'0 0.0
2018-Feb-11 10:30N 29°44' W 094°05'0 0.0
2018-Feb-11 10:00N 29°44' W 094°05'0 0.0
2018-Feb-11 09:30N 29°44' W 094°05'0 0.0
2018-Feb-11 09:00N 29°44' W 094°05'0 0.3
2018-Feb-11 08:30N 29°45' W 094°05'2 4.8
2018-Feb-11 08:00N 29°46' W 094°03'2 4.8
2018-Feb-11 07:30N 29°48' W 094°01'2 4.2
2018-Feb-11 07:00N 29°49' W 093°59'1 1.8
2018-Feb-11 06:30N 29°49' W 093°58'2 3.9
2018-Feb-11 06:00N 29°51' W 093°57'4 7.7
2018-Feb-11 05:30N 29°54' W 093°54'4 8.1
2018-Feb-11 05:00N 29°57' W 093°52'3 5.0
2018-Feb-11 04:30N 29°59' W 093°49'3 6.8
2018-Feb-11 04:00N 30°01' W 093°46'3 6.4
2018-Feb-11 03:30N 30°03' W 093°43'3 5.4
2018-Feb-11 03:00N 30°04' W 093°40'1 2.6
2018-Feb-11 02:30N 30°04' W 093°39'2 4.5
2018-Feb-11 02:00N 30°04' W 093°36'2 4.1
2018-Feb-11 01:30N 30°04' W 093°34'2 4.6
2018-Feb-11 01:00N 30°04' W 093°31'2 4.6
2018-Feb-11 00:30N 30°04' W 093°29'2 4.6
2018-Feb-11 00:00N 30°04' W 093°26'2 4.8
2018-Feb-10 23:30N 30°04' W 093°23'2 3.8
2018-Feb-10 23:00N 30°04' W 093°21'2 3.7
2018-Feb-10 22:30N 30°05' W 093°20'1 1.5
2018-Feb-10 22:00N 30°06' W 093°19'0 0.0
2018-Feb-10 21:30N 30°06' W 093°19'0 0.0
2018-Feb-10 21:00N 30°06' W 093°19'0 0.0
2018-Feb-10 20:30N 30°06' W 093°19'0 0.0
2018-Feb-10 20:00N 30°06' W 093°19'0 0.0
2018-Feb-10 19:30N 30°06' W 093°19'0 0.0
2018-Feb-10 19:00N 30°06' W 093°19'0 0.1
2018-Feb-10 18:30N 30°06' W 093°19'1 1.7
2018-Feb-10 18:00N 30°06' W 093°20'3 6.5
2018-Feb-10 17:30N 30°10' W 093°19'4 7.2
2018-Feb-10 16:59N 30°12' W 093°16'1 2.6
2018-Feb-10 16:30N 30°13' W 093°15'0 0.8
2018-Feb-10 15:59N 30°14' W 093°15'0 0.0
2018-Feb-10 15:09N 30°14' W 093°15'0 0.0
2018-Feb-10 14:50N 30°14' W 093°15'0 0.0
2018-Feb-10 14:23N 30°14' W 093°15'0 0.0
2018-Feb-10 13:00N 30°14' W 093°15'0 0.0
2018-Feb-10 11:38N 30°14' W 093°15'0 0.0
2018-Feb-10 11:26N 30°14' W 093°15'0 0.0
2018-Feb-10 10:46N 30°14' W 093°15'0 0.0
2018-Feb-10 10:27N 30°14' W 093°15'0 0.0
2018-Feb-10 09:54N 30°14' W 093°15'0 0.0
2018-Feb-10 09:29N 30°14' W 093°15'0 0.0
2018-Feb-10 08:59N 30°14' W 093°15'0 0.0
2018-Feb-10 08:29N 30°14' W 093°15'0 0.0
2018-Feb-10 08:00N 30°14' W 093°15'0 0.0
2018-Feb-10 07:26N 30°14' W 093°15'0 0.0
2018-Feb-10 06:59N 30°14' W 093°15'0 0.0
2018-Feb-10 06:30N 30°14' W 093°15'0 0.0
2018-Feb-10 06:00N 30°14' W 093°15'0 0.0
2018-Feb-10 05:30N 30°14' W 093°15'0 0.0
2018-Feb-10 05:00N 30°14' W 093°15'0 0.0
2018-Feb-10 04:30N 30°14' W 093°15'0 0.0
2018-Feb-10 04:00N 30°14' W 093°15'0 0.0
2018-Feb-10 03:30N 30°14' W 093°15'0 0.0
2018-Feb-10 01:25N 30°14' W 093°15'0 0.0
2018-Feb-10 00:56N 30°14' W 093°15'  
Track history (hours):
 
Tides and Currents Weather Stations Pressure Air Temp Water Temp Dewpoint Dewpoint Depression Visibility Wind Speed Wind Dir Waves Ship Positions

Earl Gonsoulin

Owner: LeBeouf Bros. Towing, L.L.C., Houma, LA. More information available from US FCC via Universal Licensing System and Coast Guard Vessel Documentation Center.

Last reported at 2018-Feb-19 21:30 UTC. Time now 2018-Feb-19 21:50 UTC.
Position N 29°48' W 094°01'.

Length 21 m; draft 3 m.

Type: Tug. MMSI: 367005550.

Date/timePositionNaut miles runAvg speedWind from/ knotsBaromVisibWave heightAir tempDewpointWater temp
2018-Feb-19 21:30N 29°48' W 094°01'0 0.0
2018-Feb-19 21:00N 29°48' W 094°01'1 2.0
2018-Feb-19 20:30N 29°47' W 094°01'3 5.6
2018-Feb-19 20:00N 29°45' W 094°04'3 5.5
2018-Feb-19 19:30N 29°44' W 094°06'3 5.3
2018-Feb-19 18:59N 29°42' W 094°09'3 5.5
2018-Feb-19 18:28N 29°41' W 094°12'9 5.3
2018-Feb-19 16:50N 29°37' W 094°21'1 4.0
2018-Feb-19 16:30N 29°36' W 094°22'3 4.2
2018-Feb-19 15:54N 29°36' W 094°25'4 3.3
2018-Feb-19 14:47N 29°33' W 094°28'1 4.8
2018-Feb-19 14:30N 29°32' W 094°29'3 3.8
2018-Feb-19 13:49N 29°31' W 094°31'3 0.9
2018-Feb-19 11:04N 29°30' W 094°34'0 0.0
2018-Feb-19 11:00N 29°30' W 094°34'0 0.0
2018-Feb-19 10:30N 29°30' W 094°34'2 2.5
2018-Feb-19 09:49N 29°29' W 094°36'1 3.0
2018-Feb-19 09:30N 29°29' W 094°37'0 0.6
2018-Feb-19 08:59N 29°29' W 094°37'0 0.0
2018-Feb-19 08:30N 29°29' W 094°37'0 0.0
2018-Feb-19 08:00N 29°29' W 094°37'0 0.0
2018-Feb-19 07:30N 29°29' W 094°37'0 0.0
2018-Feb-19 07:00N 29°29' W 094°37'0 0.0
2018-Feb-19 06:30N 29°29' W 094°37'0 0.0
2018-Feb-19 06:00N 29°29' W 094°37'0 0.0
2018-Feb-19 05:30N 29°29' W 094°37'0 0.0
2018-Feb-19 05:00N 29°29' W 094°37'0 0.0
2018-Feb-19 04:27N 29°29' W 094°37'0 0.0
2018-Feb-19 04:00N 29°29' W 094°37'0 0.0
2018-Feb-19 02:28N 29°29' W 094°37'0 0.1
2018-Feb-19 01:22N 29°29' W 094°37'0 0.0
2018-Feb-19 00:55N 29°29' W 094°37'0 0.0
2018-Feb-18 19:36N 29°29' W 094°37'0 0.0
2018-Feb-18 19:21N 29°29' W 094°37'0 0.0
2018-Feb-18 18:59N 29°29' W 094°37'0 0.0
2018-Feb-18 18:30N 29°29' W 094°37'0 0.0
2018-Feb-18 17:57N 29°29' W 094°37'0 0.0
2018-Feb-18 17:26N 29°29' W 094°37'0 0.0
2018-Feb-18 16:57N 29°29' W 094°37'0 0.0
2018-Feb-18 16:29N 29°29' W 094°37'0 0.0
2018-Feb-18 15:59N 29°29' W 094°37'0 0.0
2018-Feb-18 15:21N 29°29' W 094°37'0 0.0
2018-Feb-18 14:54N 29°29' W 094°37'0 0.0
2018-Feb-18 14:30N 29°29' W 094°37'0 0.0
2018-Feb-18 09:11N 29°29' W 094°37'0 0.0
2018-Feb-18 07:52N 29°29' W 094°37'0 0.0
2018-Feb-18 02:11N 29°29' W 094°37'0 0.0
2018-Feb-18 01:31N 29°29' W 094°37'0 0.0
2018-Feb-18 01:30N 29°29' W 094°37'13 1.8
2018-Feb-17 18:28N 29°29' W 094°52'4 8.3
2018-Feb-17 18:00N 29°32' W 094°54'4 8.0
2018-Feb-17 17:30N 29°36' W 094°57'4 7.2
2018-Feb-17 17:00N 29°39' W 094°58'3 6.9
2018-Feb-17 16:30N 29°42' W 095°00'1 2.3
2018-Feb-17 16:00N 29°42' W 095°02'1 2.1
2018-Feb-17 15:28N 29°42' W 095°03'0 0.0
2018-Feb-16 19:55N 29°42' W 095°03'0 0.5
2018-Feb-16 19:27N 29°42' W 095°03'1 2.6
2018-Feb-16 18:59N 29°42' W 095°01'1 2.1
2018-Feb-16 18:30N 29°43' W 095°01'3 6.1
2018-Feb-16 18:00N 29°45' W 095°04'1 2.7
2018-Feb-16 17:30N 29°45' W 095°06'0 0.3
2018-Feb-16 16:11N 29°45' W 095°06'0 0.0
2018-Feb-16 15:47N 29°45' W 095°06'0 0.0
2018-Feb-16 08:43N 29°45' W 095°06'0 0.0
2018-Feb-16 08:15N 29°45' W 095°06'0 0.0
2018-Feb-16 07:58N 29°45' W 095°06'0 0.0
2018-Feb-16 07:27N 29°45' W 095°06'0 0.0
2018-Feb-16 06:43N 29°45' W 095°06'0 0.0
2018-Feb-16 06:25N 29°45' W 095°06'0 0.0
2018-Feb-16 05:59N 29°45' W 095°06'0 0.0
2018-Feb-16 05:28N 29°45' W 095°06'0 0.0
2018-Feb-16 05:00N 29°45' W 095°06'0 0.0
2018-Feb-16 04:30N 29°45' W 095°06'0 0.0
2018-Feb-16 04:00N 29°45' W 095°06'0 0.0
2018-Feb-16 03:28N 29°45' W 095°06'0 0.0
2018-Feb-16 03:00N 29°45' W 095°06'0 0.0
2018-Feb-16 02:29N 29°45' W 095°06'0 0.0
2018-Feb-16 02:00N 29°45' W 095°06'0 0.0
2018-Feb-16 01:25N 29°45' W 095°06'0 0.0
2018-Feb-16 00:52N 29°45' W 095°06'0 0.1
2018-Feb-15 19:33N 29°45' W 095°06'3 1.4
2018-Feb-15 17:14N 29°44' W 095°03'2 5.7
2018-Feb-15 16:55N 29°43' W 095°01'1 3.2
2018-Feb-15 16:30N 29°42' W 095°03'0 0.0
2018-Feb-15 11:18N 29°42' W 095°03'0 0.0
2018-Feb-15 07:59N 29°42' W 095°03'0 0.0
2018-Feb-15 06:22N 29°42' W 095°03'0 0.0
2018-Feb-15 04:37N 29°42' W 095°03'0 0.0
2018-Feb-15 04:25N 29°42' W 095°03'0 0.0
2018-Feb-15 03:36N 29°42' W 095°03'0 0.0
2018-Feb-15 02:31N 29°42' W 095°03'0 0.0
2018-Feb-15 02:28N 29°42' W 095°03'0 0.0
2018-Feb-15 01:56N 29°42' W 095°03'0 0.0
2018-Feb-15 01:22N 29°42' W 095°03'0 0.0
2018-Feb-14 23:11N 29°42' W 095°03'0 0.0
2018-Feb-14 22:59N 29°42' W 095°03'0 0.0
2018-Feb-14 20:44N 29°42' W 095°03'0 0.0
2018-Feb-14 20:14N 29°42' W 095°03'0 0.0
2018-Feb-14 19:56N 29°42' W 095°03'0 0.0
2018-Feb-14 16:24N 29°43' W 095°03'1 3.1
2018-Feb-14 15:58N 29°42' W 095°01'5 1.1
2018-Feb-14 11:14N 29°45' W 095°06'0 0.0
2018-Feb-14 10:53N 29°45' W 095°06'0 0.0
2018-Feb-14 10:23N 29°45' W 095°06'0 0.0
2018-Feb-14 09:59N 29°45' W 095°06'0 0.0
2018-Feb-14 09:29N 29°45' W 095°06'0 0.0
2018-Feb-14 08:43N 29°45' W 095°06'0 0.0
2018-Feb-14 08:30N 29°45' W 095°06'0 0.0
2018-Feb-14 07:57N 29°45' W 095°06'0 0.0
2018-Feb-14 07:30N 29°45' W 095°06'0 0.0
2018-Feb-14 07:00N 29°45' W 095°06'0 0.0
2018-Feb-14 05:42N 29°45' W 095°06'0 0.0
2018-Feb-14 05:29N 29°45' W 095°06'0 0.0
2018-Feb-14 05:00N 29°45' W 095°06'0 0.0
2018-Feb-14 04:25N 29°45' W 095°06'0 0.0
2018-Feb-14 03:59N 29°45' W 095°06'0 0.0
2018-Feb-14 03:25N 29°45' W 095°06'0 0.0
2018-Feb-14 02:50N 29°45' W 095°06'0 0.0
2018-Feb-14 02:29N 29°45' W 095°06'0 0.0
2018-Feb-14 01:54N 29°45' W 095°06'0 0.0
2018-Feb-14 01:12N 29°45' W 095°06'0 0.0
2018-Feb-14 00:57N 29°45' W 095°06'0 0.0
2018-Feb-14 00:25N 29°45' W 095°06'0 0.0
2018-Feb-13 22:11N 29°45' W 095°06'0 0.0
2018-Feb-13 22:00N 29°45' W 095°06'0 0.0
2018-Feb-13 21:29N 29°45' W 095°06'0 0.0
2018-Feb-13 20:52N 29°45' W 095°06'0 0.0
2018-Feb-13 20:30N 29°45' W 095°06'0 0.0
2018-Feb-13 19:07N 29°45' W 095°06'0 0.0
2018-Feb-13 18:55N 29°45' W 095°06'0 0.0
2018-Feb-13 18:23N 29°45' W 095°06'0 0.0
2018-Feb-13 16:55N 29°45' W 095°06'0 0.0
2018-Feb-13 16:30N 29°45' W 095°06'0 0.0
2018-Feb-13 15:47N 29°45' W 095°06'0 0.0
2018-Feb-13 14:58N 29°45' W 095°06'0 0.0
2018-Feb-13 14:26N 29°45' W 095°06'0 0.0
2018-Feb-13 13:14N 29°45' W 095°06'0 0.0
2018-Feb-13 11:49N 29°45' W 095°06'0 0.0
2018-Feb-13 11:27N 29°45' W 095°06'4 0.4
2018-Feb-13 01:45N 29°42' W 095°03'0 1.2
2018-Feb-13 01:29N 29°42' W 095°02'1 2.5
2018-Feb-13 01:00N 29°42' W 095°01'1 2.6
2018-Feb-13 00:30N 29°42' W 094°60'4 7.8
2018-Feb-13 00:00N 29°38' W 094°58'4 7.9
2018-Feb-12 23:30N 29°35' W 094°56'16 2.5
2018-Feb-12 16:55N 29°28' W 094°38'1 3.2
2018-Feb-12 16:29N 29°29' W 094°37'2 0.1
2018-Feb-11 22:23N 29°30' W 094°34'11 3.3
2018-Feb-11 19:05N 29°36' W 094°24'0 5.3
2018-Feb-11 19:00N 29°36' W 094°24'2 4.1
2018-Feb-11 18:25N 29°37' W 094°21'2 4.3
2018-Feb-11 18:00N 29°38' W 094°19'2 3.9
2018-Feb-11 17:30N 29°38' W 094°17'1 3.0
2018-Feb-11 17:00N 29°39' W 094°16'2 4.3
2018-Feb-11 16:30N 29°40' W 094°14'2 4.4
2018-Feb-11 16:00N 29°41' W 094°12'2 4.7
2018-Feb-11 15:30N 29°42' W 094°09'2 4.1
2018-Feb-11 15:00N 29°43' W 094°07'2 4.6
2018-Feb-11 14:30N 29°44' W 094°05'0 0.1
2018-Feb-11 14:00N 29°44' W 094°05'0 0.0
2018-Feb-11 13:30N 29°44' W 094°05'0 0.0
2018-Feb-11 13:00N 29°44' W 094°05'0 0.0
2018-Feb-11 12:30N 29°44' W 094°05'0 0.0
2018-Feb-11 12:00N 29°44' W 094°05'0 0.0
2018-Feb-11 11:30N 29°44' W 094°05'0 0.0
2018-Feb-11 11:00N 29°44' W 094°05'0 0.0
2018-Feb-11 10:30N 29°44' W 094°05'0 0.0
2018-Feb-11 10:00N 29°44' W 094°05'0 0.0
2018-Feb-11 09:30N 29°44' W 094°05'0 0.0
2018-Feb-11 09:00N 29°44' W 094°05'0 0.3
2018-Feb-11 08:30N 29°45' W 094°05'2 4.8
2018-Feb-11 08:00N 29°46' W 094°03'2 4.8
2018-Feb-11 07:30N 29°48' W 094°01'2 4.2
2018-Feb-11 07:00N 29°49' W 093°59'1 1.8
2018-Feb-11 06:30N 29°49' W 093°58'2 3.9
2018-Feb-11 06:00N 29°51' W 093°57'4 7.7
2018-Feb-11 05:30N 29°54' W 093°54'4 8.1
2018-Feb-11 05:00N 29°57' W 093°52'3 5.0
2018-Feb-11 04:30N 29°59' W 093°49'3 6.8
2018-Feb-11 04:00N 30°01' W 093°46'3 6.4
2018-Feb-11 03:30N 30°03' W 093°43'3 5.4
2018-Feb-11 03:00N 30°04' W 093°40'1 2.6
2018-Feb-11 02:30N 30°04' W 093°39'2 4.5
2018-Feb-11 02:00N 30°04' W 093°36'2 4.1
2018-Feb-11 01:30N 30°04' W 093°34'2 4.6
2018-Feb-11 01:00N 30°04' W 093°31'2 4.6
2018-Feb-11 00:30N 30°04' W 093°29'2 4.6
2018-Feb-11 00:00N 30°04' W 093°26'2 4.8
2018-Feb-10 23:30N 30°04' W 093°23'2 3.8
2018-Feb-10 23:00N 30°04' W 093°21'2 3.7
2018-Feb-10 22:30N 30°05' W 093°20'1 1.5
2018-Feb-10 22:00N 30°06' W 093°19'0 0.0
2018-Feb-10 21:30N 30°06' W 093°19'0 0.0
2018-Feb-10 21:00N 30°06' W 093°19'0 0.0
2018-Feb-10 20:30N 30°06' W 093°19'0 0.0
2018-Feb-10 20:00N 30°06' W 093°19'0 0.0
2018-Feb-10 19:30N 30°06' W 093°19'0 0.0
2018-Feb-10 19:00N 30°06' W 093°19'0 0.1
2018-Feb-10 18:30N 30°06' W 093°19'1 1.7
2018-Feb-10 18:00N 30°06' W 093°20'3 6.5
2018-Feb-10 17:30N 30°10' W 093°19'4 7.2
2018-Feb-10 16:59N 30°12' W 093°16'1 2.6
2018-Feb-10 16:30N 30°13' W 093°15'0 0.8
2018-Feb-10 15:59N 30°14' W 093°15'0 0.0
2018-Feb-10 15:09N 30°14' W 093°15'0 0.0
2018-Feb-10 14:50N 30°14' W 093°15'0 0.0
2018-Feb-10 14:23N 30°14' W 093°15'0 0.0
2018-Feb-10 13:00N 30°14' W 093°15'0 0.0
2018-Feb-10 11:38N 30°14' W 093°15'0 0.0
2018-Feb-10 11:26N 30°14' W 093°15'0 0.0
2018-Feb-10 10:46N 30°14' W 093°15'0 0.0
2018-Feb-10 10:27N 30°14' W 093°15'0 0.0
2018-Feb-10 09:54N 30°14' W 093°15'0 0.0
2018-Feb-10 09:29N 30°14' W 093°15'0 0.0
2018-Feb-10 08:59N 30°14' W 093°15'0 0.0
2018-Feb-10 08:29N 30°14' W 093°15'0 0.0
2018-Feb-10 08:00N 30°14' W 093°15'0 0.0
2018-Feb-10 07:26N 30°14' W 093°15'0 0.0
2018-Feb-10 06:59N 30°14' W 093°15'0 0.0
2018-Feb-10 06:30N 30°14' W 093°15'0 0.0
2018-Feb-10 06:00N 30°14' W 093°15'0 0.0
2018-Feb-10 05:30N 30°14' W 093°15'0 0.0
2018-Feb-10 05:00N 30°14' W 093°15'0 0.0
2018-Feb-10 04:30N 30°14' W 093°15'0 0.0
2018-Feb-10 04:00N 30°14' W 093°15'0 0.0
2018-Feb-10 03:30N 30°14' W 093°15'0 0.0
2018-Feb-10 01:25N 30°14' W 093°15'0 0.0
2018-Feb-10 00:56N 30°14' W 093°15'  

Dump ship's entire track history